Карточка аэропорта USTR

Внимание!
Информация на этой странице в стадии наполнения.
Если вы не увидели какой-то информации, или заметили неточность - пожалуйста сообщите нам!
Спасибо!
Команда RU-STAFF
Название аэропортаРощино
Название аэропорта (англ.)Roshschino
Превышение378 ft. (115.2 m.)
Координаты57°10.098', 65°19.002'
Высота перехода3000ft
Эшелон переходаQNH⩾1013hPa:FL040; QNH⩾977hPa:FL050; QNH⩽977hPa:FL060
Коды ответчика5101-5137
Зона ОрВДТюмень РПИ (USTV)
Данные METARUSTR 271130Z 30007MPS CAVOK 08/M07 Q1018 R30/090065 R21/090065 NOSIG
Проноз погоды (TAF)USTR 270449Z 2706/2806 31006G14MPS 9999 SCT020 TEMPO 2706/2715 30015MPS -SHRA BKN016CB BECMG 2715/2716 25005G14MPS BKN020CB TEMPO 2718/2803 4000 -SHRA SCT007 BKN016CB FM280300 28007G14MPS 6000 BKN020CB TEMPO 2803/2806 30009G20MPS -SHRA BKN016CB
NOTAMshow/hide NOTAM
AWOS   TABLE

Информация о ВПП

ВПП Длина ВПП (м.) Покрытие Курс ВПП Частота ILS
302704Асфальтобетон301 
213003Асфальтобетон214110.7
122704Асфальтобетон121 
033003Асфальтобетон34108.3

Диспетчерские позиции

Позывной Наименование органа УВД Частота
USTR_R_APPТюмень-Круг126.100
USTR_GNDТюмень-Руление119.000
USTR_TWRТюмень-Старт118.200



Спутниковое изображение